createdAt,value
2024-02-11T00:11:25.983Z,47.50
2024-02-11T00:26:27.868Z,43.80
2024-02-11T00:41:29.815Z,37.97
2024-02-11T00:56:32.384Z,44.23
2024-02-11T01:11:34.176Z,44.00
2024-02-11T01:26:38.176Z,40.97
2024-02-11T01:41:40.423Z,41.33
2024-02-11T01:56:42.689Z,42.33
2024-02-11T02:11:44.583Z,38.30
2024-02-11T02:26:47.931Z,37.37
2024-02-11T02:41:49.747Z,37.23
2024-02-11T02:56:51.506Z,36.70
2024-02-11T03:11:53.428Z,40.13
2024-02-11T03:26:55.167Z,43.07
2024-02-11T03:41:56.890Z,42.57
2024-02-11T03:56:58.588Z,42.10
2024-02-11T04:12:01.018Z,38.77
2024-02-11T04:27:04.216Z,37.20
2024-02-11T04:42:06.642Z,39.23
2024-02-11T04:57:08.434Z,41.93
2024-02-11T05:12:10.980Z,39.13
2024-02-11T05:27:14.537Z,41.43
2024-02-11T05:42:16.339Z,41.13
2024-02-11T05:57:18.481Z,40.73
2024-02-11T06:12:20.233Z,39.80
2024-02-11T06:27:22.157Z,41.23
2024-02-11T06:42:27.495Z,41.50
2024-02-11T06:57:30.702Z,35.30
2024-02-11T07:12:32.612Z,40.33
2024-02-11T07:27:34.965Z,39.43
2024-02-11T07:42:38.601Z,43.20
2024-02-11T07:57:40.697Z,40.90
2024-02-11T08:12:42.461Z,39.03
2024-02-11T08:27:45.525Z,37.50
2024-02-11T08:42:47.315Z,43.57
2024-02-11T08:57:49.605Z,42.73
2024-02-11T09:12:51.340Z,43.37
2024-02-11T09:27:53.031Z,43.23
2024-02-11T09:42:58.458Z,47.37
2024-02-11T09:58:00.236Z,47.33
2024-02-11T10:13:04.227Z,48.47
2024-02-11T10:43:10.981Z,48.93
2024-02-11T10:58:17.498Z,50.53
2024-02-11T11:13:27.776Z,52.73
2024-02-11T11:43:34.741Z,53.13
2024-02-11T11:58:36.872Z,50.33
2024-02-11T12:13:40.705Z,51.90
2024-02-11T12:28:42.876Z,49.87
2024-02-11T12:43:45.932Z,49.97
2024-02-11T12:58:50.334Z,48.00
2024-02-11T13:13:53.313Z,50.53
2024-02-11T13:28:55.249Z,50.07
2024-02-11T13:43:56.999Z,53.13
2024-02-11T13:58:58.819Z,55.67
2024-02-11T14:14:01.330Z,55.17
2024-02-11T14:29:03.140Z,50.27
2024-02-11T14:44:06.606Z,53.47
2024-02-11T14:59:08.527Z,48.83
2024-02-11T15:14:10.676Z,47.60
2024-02-11T15:29:13.540Z,44.47
2024-02-11T15:44:16.326Z,45.73
2024-02-11T15:59:18.468Z,49.87
2024-02-11T16:14:23.981Z,46.17
2024-02-11T16:29:26.282Z,42.80
2024-02-11T16:44:28.659Z,41.63
2024-02-11T16:59:30.656Z,46.63
2024-02-11T17:14:33.499Z,43.97
2024-02-11T17:29:39.266Z,47.20
2024-02-11T17:44:44.859Z,39.47
2024-02-11T17:59:47.385Z,36.40
2024-02-11T18:14:50.141Z,32.67
2024-02-11T18:29:52.039Z,34.27
2024-02-11T18:44:55.577Z,33.57
2024-02-11T18:59:57.993Z,36.70
2024-02-11T19:14:59.908Z,32.53
2024-02-11T19:30:02.939Z,35.23
2024-02-11T19:45:07.801Z,32.43
2024-02-11T20:00:13.889Z,30.97
2024-02-11T20:15:19.166Z,28.60
2024-02-11T20:30:21.179Z,29.23
2024-02-11T20:45:22.942Z,28.57
2024-02-11T21:00:25.460Z,28.37
2024-02-11T21:15:27.400Z,28.97
2024-02-11T21:30:30.741Z,23.57
2024-02-11T21:45:32.537Z,30.67
2024-02-11T22:00:34.649Z,27.40
2024-02-11T22:15:36.672Z,23.60
2024-02-11T22:30:39.018Z,22.43
2024-02-11T22:45:40.828Z,23.53
2024-02-11T23:00:46.362Z,23.43
2024-02-11T23:15:52.690Z,20.73
2024-02-11T23:45:56.026Z,20.37
